Time;durP1;ratioP1;P1;durP2;ratioP2;P2;SDS_P1;SDS_P2;PMS_P1;PMS_P2;Temp;Humidity;BMP_temperature;BMP_pressure;BME280_temperature;BME280_humidity;BME280_pressure;Samples;Min_cycle;Max_cycle;Signal;HPM_P1;HPM_P2
2021/07/27 00:01:46;;;;;;;39.40;15.30;;;17.60;99.90;;;;;;5076879;28;20059;-71
2021/07/27 00:04:12;;;;;;;43.88;15.93;;;17.60;99.90;;;;;;5076171;28;20040;-71
2021/07/27 00:06:37;;;;;;;45.35;15.75;;;17.50;99.90;;;;;;5079144;28;20496;-71
2021/07/27 00:09:03;;;;;;;36.13;14.43;;;17.50;99.90;;;;;;5077452;28;20478;-71
2021/07/27 00:11:28;;;;;;;38.20;15.57;;;17.60;99.90;;;;;;5078825;28;20404;-71
2021/07/27 00:13:54;;;;;;;37.83;15.75;;;17.60;99.90;;;;;;5064529;28;20079;-71
2021/07/27 00:16:19;;;;;;;33.70;14.80;;;17.60;99.90;;;;;;5079955;28;20477;-71
2021/07/27 00:18:45;;;;;;;42.88;16.30;;;17.60;99.90;;;;;;5084038;28;20396;-71
2021/07/27 00:21:10;;;;;;;37.33;16.33;;;17.50;99.90;;;;;;5080140;28;20040;-71
2021/07/27 00:23:38;;;;;;;40.70;16.15;;;17.60;99.90;;;;;;5082480;28;20426;-71
2021/07/27 00:26:10;;;;;;;40.58;15.40;;;17.60;99.90;;;;;;5064355;28;20032;-70
2021/07/27 00:28:35;;;;;;;34.15;14.57;;;17.60;99.90;;;;;;5080316;28;20033;-71
2021/07/27 00:31:01;;;;;;;33.22;13.57;;;17.60;99.90;;;;;;5064307;28;20043;-71
2021/07/27 00:33:26;;;;;;;33.17;13.68;;;17.60;99.90;;;;;;5083199;28;20116;-71
2021/07/27 00:35:52;;;;;;;28.83;12.18;;;17.50;99.90;;;;;;5082577;28;20035;-71
2021/07/27 00:38:19;;;;;;;30.70;12.52;;;17.50;99.90;;;;;;5083911;28;20073;-71
2021/07/27 00:40:46;;;;;;;23.90;11.65;;;17.50;99.90;;;;;;5083686;28;20625;-71
2021/07/27 00:43:13;;;;;;;27.33;13.23;;;17.50;99.90;;;;;;5079731;28;20031;-71
2021/07/27 00:45:39;;;;;;;27.30;11.40;;;17.50;99.90;;;;;;5081595;28;20043;-71
2021/07/27 00:48:05;;;;;;;34.20;13.10;;;17.50;99.90;;;;;;5062158;28;20033;-71
2021/07/27 00:50:31;;;;;;;30.85;11.95;;;17.40;99.90;;;;;;5081723;28;20550;-71
2021/07/27 00:52:59;;;;;;;29.75;12.13;;;17.40;99.90;;;;;;5081331;28;20036;-71
2021/07/27 00:55:29;;;;;;;31.08;12.55;;;17.40;99.90;;;;;;5081563;28;20023;-71
2021/07/27 00:57:55;;;;;;;29.77;11.70;;;17.40;99.90;;;;;;5081087;28;20060;-71
2021/07/27 01:00:22;;;;;;;29.38;11.88;;;17.30;99.90;;;;;;5079921;28;20642;-71
2021/07/27 01:02:48;;;;;;;28.25;13.18;;;17.30;99.90;;;;;;5079584;28;20025;-71
2021/07/27 01:05:14;;;;;;;30.50;12.50;;;17.30;99.90;;;;;;5082711;28;20445;-71
2021/07/27 01:07:40;;;;;;;27.55;12.45;;;17.30;99.90;;;;;;5082617;28;20044;-71
2021/07/27 01:10:07;;;;;;;37.63;12.35;;;17.20;99.90;;;;;;5082648;28;20050;-71
2021/07/27 01:12:33;;;;;;;31.60;12.98;;;17.10;99.90;;;;;;5079474;28;20124;-74
2021/07/27 01:15:03;;;;;;;36.60;13.07;;;17.20;99.90;;;;;;5081736;28;20111;-71
2021/07/27 01:17:29;;;;;;;32.80;13.03;;;17.10;99.90;;;;;;5079850;28;20036;-71
2021/07/27 01:20:02;;;;;;;40.38;12.70;;;17.10;99.90;;;;;;5078674;28;20037;-71
2021/07/27 01:42:18;;;;;;;38.35;13.38;;;16.90;99.90;;;;;;5011970;28;20042;-71
2021/07/27 01:44:46;;;;;;;29.77;12.55;;;16.90;99.90;;;;;;5013330;28;20030;-71
2021/07/27 01:47:18;;;;;;;35.80;13.60;;;16.90;99.90;;;;;;5051717;28;20501;-71
2021/07/27 01:49:45;;;;;;;33.67;13.50;;;16.80;99.90;;;;;;5078483;28;20037;-72
2021/07/27 01:52:14;;;;;;;36.60;14.20;;;16.80;99.90;;;;;;5063480;28;20127;-71
2021/07/27 01:54:41;;;;;;;31.95;13.68;;;16.80;99.90;;;;;;5078545;28;20515;-71
2021/07/27 01:57:10;;;;;;;35.55;13.55;;;16.70;99.90;;;;;;5063349;28;20040;-71
2021/07/27 01:59:37;;;;;;;33.15;13.95;;;16.70;99.90;;;;;;5056342;28;20111;-71
2021/07/27 02:02:03;;;;;;;36.03;14.45;;;16.70;99.90;;;;;;5080521;28;20080;-71
2021/07/27 02:04:29;;;;;;;34.90;14.48;;;16.60;99.90;;;;;;5059574;28;20035;-71
2021/07/27 02:06:54;;;;;;;30.00;13.52;;;16.60;99.90;;;;;;5078772;28;20032;-70
2021/07/27 02:09:20;;;;;;;34.38;13.75;;;16.60;99.90;;;;;;5061438;28;20048;-71
2021/07/27 02:11:47;;;;;;;40.25;15.00;;;16.60;99.90;;;;;;5081518;28;20115;-71
2021/07/27 02:14:15;;;;;;;39.55;14.43;;;16.60;99.90;;;;;;5062186;28;20044;-71
2021/07/27 02:16:41;;;;;;;38.75;14.73;;;16.60;99.90;;;;;;5078304;28;20032;-71
2021/07/27 02:19:07;;;;;;;35.15;14.93;;;16.60;99.90;;;;;;5081133;28;20051;-71
2021/07/27 02:21:32;;;;;;;32.30;14.30;;;16.60;99.90;;;;;;5078091;28;20029;-71
2021/07/27 02:24:00;;;;;;;41.22;15.75;;;16.60;99.90;;;;;;5079930;28;20036;-71
2021/07/27 02:26:25;;;;;;;43.85;15.45;;;16.60;99.90;;;;;;5076814;28;20032;-71
2021/07/27 02:28:51;;;;;;;39.17;15.38;;;16.60;99.90;;;;;;5078679;28;20039;-73
2021/07/27 02:31:34;;;;;;;38.78;16.00;;;16.60;99.90;;;;;;5078827;28;20361;-71
2021/07/27 02:34:01;;;;;;;44.90;16.60;;;16.60;99.90;;;;;;5076250;28;20027;-71
2021/07/27 02:36:26;;;;;;;41.65;15.98;;;16.60;99.90;;;;;;5077445;28;20032;-71
2021/07/27 02:38:52;;;;;;;43.47;17.00;;;16.60;99.90;;;;;;5078533;28;20028;-71
2021/07/27 02:41:20;;;;;;;42.08;16.63;;;16.50;99.90;;;;;;5075575;28;20488;-71
2021/07/27 02:43:46;;;;;;;52.00;17.25;;;16.50;99.90;;;;;;5078788;28;20385;-71
2021/07/27 02:46:11;;;;;;;50.65;17.88;;;16.50;99.90;;;;;;5076717;28;20036;-71
2021/07/27 02:48:39;;;;;;;44.08;17.38;;;16.50;99.90;;;;;;5080377;28;20032;-71
2021/07/27 02:51:07;;;;;;;48.50;17.40;;;16.50;99.90;;;;;;5076730;28;20035;-71
2021/07/27 02:53:33;;;;;;;49.35;18.00;;;16.40;99.90;;;;;;5077020;28;20518;-71
2021/07/27 02:56:01;;;;;;;48.13;17.58;;;16.40;99.90;;;;;;5061756;28;20032;-71
2021/07/27 02:58:29;;;;;;;51.58;18.83;;;16.40;99.90;;;;;;5076290;28;20032;-70
2021/07/27 03:00:55;;;;;;;57.58;19.42;;;16.40;99.90;;;;;;5059693;28;20123;-71
2021/07/27 03:03:20;;;;;;;59.63;20.67;;;16.30;99.90;;;;;;5078627;28;20111;-71
2021/07/27 03:05:46;;;;;;;54.22;20.58;;;16.40;99.90;;;;;;5079065;28;20036;-71
2021/07/27 03:08:19;;;;;;;61.00;21.42;;;16.30;99.90;;;;;;5080639;28;20024;-71
2021/07/27 03:10:44;;;;;;;70.25;21.80;;;16.30;99.90;;;;;;5078711;28;20082;-70
2021/07/27 03:13:10;;;;;;;67.13;22.92;;;16.30;99.90;;;;;;5061607;28;20028;-71
2021/07/27 03:15:35;;;;;;;71.63;21.92;;;16.30;99.90;;;;;;5077056;28;20028;-71
2021/07/27 03:18:01;;;;;;;70.50;22.55;;;16.30;99.90;;;;;;5079430;28;20037;-71
2021/07/27 03:20:28;;;;;;;69.55;23.95;;;16.20;99.90;;;;;;5080237;28;20042;-70
2021/07/27 03:22:55;;;;;;;69.07;24.73;;;16.20;99.90;;;;;;5077471;28;20024;-71
2021/07/27 03:25:21;;;;;;;70.82;24.50;;;16.20;99.90;;;;;;5078846;28;20483;-71
2021/07/27 03:27:49;;;;;;;75.50;23.63;;;16.20;99.90;;;;;;5078139;28;20020;-71
2021/07/27 03:30:21;;;;;;;71.07;24.08;;;16.20;99.90;;;;;;5077515;28;20047;-71
2021/07/27 03:32:48;;;;;;;70.88;23.95;;;16.20;99.90;;;;;;5078530;28;20040;-71
2021/07/27 03:35:15;;;;;;;77.40;24.60;;;16.20;99.90;;;;;;5059470;28;20056;-71
2021/07/27 03:37:41;;;;;;;76.63;25.48;;;16.20;99.90;;;;;;5074614;28;20037;-71
2021/07/27 03:40:07;;;;;;;75.07;25.92;;;16.20;99.90;;;;;;5079493;28;20040;-71
2021/07/27 03:42:33;;;;;;;75.22;26.30;;;16.20;99.90;;;;;;5080282;28;20032;-71
2021/07/27 03:44:59;;;;;;;76.53;24.27;;;16.20;99.90;;;;;;5072114;28;20043;-71
2021/07/27 03:47:25;;;;;;;81.20;25.45;;;16.10;99.90;;;;;;5077692;28;20032;-71
2021/07/27 03:49:51;;;;;;;78.03;26.33;;;16.20;99.90;;;;;;5077337;28;20036;-71
2021/07/27 03:52:17;;;;;;;74.30;23.80;;;16.10;99.90;;;;;;5059844;28;20047;-71
2021/07/27 03:54:42;;;;;;;80.88;26.58;;;16.20;99.90;;;;;;5061205;28;20040;-71
2021/07/27 03:57:08;;;;;;;87.25;27.10;;;16.20;99.90;;;;;;5076648;28;20061;-71
2021/07/27 03:59:34;;;;;;;81.90;27.42;;;16.20;99.90;;;;;;5079903;28;20028;-71
2021/07/27 04:02:03;;;;;;;82.65;24.20;;;16.10;99.90;;;;;;5076586;28;20046;-70
2021/07/27 04:04:33;;;;;;;77.03;25.92;;;16.20;99.90;;;;;;5072230;28;20036;-71
2021/07/27 04:06:59;;;;;;;78.07;27.33;;;16.20;99.90;;;;;;5072613;28;20032;-71
2021/07/27 04:09:25;;;;;;;77.63;26.63;;;16.20;99.90;;;;;;5079129;28;20028;-71
2021/07/27 04:11:51;;;;;;;79.50;25.95;;;16.20;99.90;;;;;;5077723;28;20478;-71
2021/07/27 04:14:16;;;;;;;81.35;26.63;;;16.10;99.90;;;;;;5078176;28;20060;-71
2021/07/27 04:16:42;;;;;;;85.20;26.60;;;16.20;99.90;;;;;;5078254;28;20181;-70
2021/07/27 04:19:08;;;;;;;69.78;24.55;;;16.20;99.90;;;;;;5077262;28;20041;-71
2021/07/27 04:21:34;;;;;;;81.95;25.55;;;16.20;99.90;;;;;;5079263;28;20639;-71
2021/07/27 04:24:01;;;;;;;73.90;25.35;;;16.20;99.90;;;;;;5058477;28;20492;-70
2021/07/27 04:26:30;;;;;;;68.70;24.05;;;16.20;99.90;;;;;;5075276;28;20043;-71
2021/07/27 04:28:56;;;;;;;68.35;23.23;;;16.20;99.90;;;;;;5058392;28;20127;-71
2021/07/27 04:31:22;;;;;;;64.72;23.15;;;16.30;99.90;;;;;;5072347;28;20115;-71
2021/07/27 04:33:48;;;;;;;68.10;25.42;;;16.30;99.90;;;;;;5070624;28;20436;-71
2021/07/27 04:36:14;;;;;;;69.40;23.50;;;16.30;99.90;;;;;;5071920;28;20061;-71
2021/07/27 04:38:40;;;;;;;56.28;22.65;;;16.30;99.90;;;;;;5070999;28;20037;-71
2021/07/27 04:41:08;;;;;;;58.80;21.98;;;16.30;99.90;;;;;;5070287;28;20074;-71
2021/07/27 04:43:35;;;;;;;57.83;22.27;;;16.40;99.90;;;;;;5068586;28;20067;-71
2021/07/27 04:46:02;;;;;;;65.55;21.50;;;16.40;99.90;;;;;;5070248;28;20048;-71
2021/07/27 04:48:27;;;;;;;58.42;21.38;;;16.50;99.90;;;;;;5072125;28;20036;-71
2021/07/27 04:50:53;;;;;;;55.85;21.23;;;16.50;99.90;;;;;;5074072;28;20033;-70
2021/07/27 04:53:23;;;;;;;48.95;19.77;;;16.50;99.90;;;;;;5078307;28;20033;-72
2021/07/27 04:55:49;;;;;;;46.80;18.67;;;16.60;99.90;;;;;;5071121;28;20071;-71
2021/07/27 04:58:15;;;;;;;51.83;18.95;;;16.60;99.90;;;;;;5081714;28;20058;-71
2021/07/27 05:00:40;;;;;;;44.75;18.40;;;16.60;99.90;;;;;;5082524;28;20029;-70
2021/07/27 05:03:06;;;;;;;49.13;18.73;;;16.70;99.90;;;;;;5075686;28;20029;-70
2021/07/27 05:05:31;;;;;;;40.00;17.42;;;16.70;99.90;;;;;;5052687;28;20107;-71
2021/07/27 05:07:58;;;;;;;41.90;16.48;;;16.80;99.90;;;;;;5085543;28;20036;-71
2021/07/27 05:10:24;;;;;;;34.30;15.10;;;16.80;99.90;;;;;;5090404;28;20556;-71
2021/07/27 05:12:50;;;;;;;38.67;16.13;;;16.90;99.90;;;;;;5089898;28;20033;-71
2021/07/27 05:15:15;;;;;;;38.25;15.48;;;16.80;99.90;;;;;;5086739;28;20036;-71
2021/07/27 05:17:44;;;;;;;33.80;14.80;;;16.90;99.90;;;;;;5052627;28;20036;-71
2021/07/27 05:20:11;;;;;;;29.98;14.77;;;16.80;99.90;;;;;;5060859;28;20443;-70
2021/07/27 05:22:36;;;;;;;29.77;13.48;;;16.90;99.90;;;;;;5057543;28;20039;-71
2021/07/27 05:25:02;;;;;;;32.50;13.55;;;16.90;99.90;;;;;;5055315;28;20038;-71
2021/07/27 05:27:31;;;;;;;32.65;13.38;;;17.00;99.90;;;;;;5056758;28;20481;-70
2021/07/27 05:29:57;;;;;;;36.00;14.57;;;17.00;99.90;;;;;;5083087;28;20043;-71
2021/07/27 05:32:24;;;;;;;36.60;14.07;;;17.00;99.90;;;;;;5083932;28;20036;-71
2021/07/27 05:34:49;;;;;;;27.67;12.63;;;17.10;99.90;;;;;;5085128;28;20081;-71
2021/07/27 05:37:16;;;;;;;30.27;13.48;;;17.20;99.90;;;;;;5054408;28;20024;-71
2021/07/27 05:39:41;;;;;;;28.67;12.77;;;17.20;99.90;;;;;;5082989;28;20032;-71
2021/07/27 05:42:07;;;;;;;26.30;12.85;;;17.20;99.90;;;;;;5086363;28;20032;-71
2021/07/27 05:44:33;;;;;;;23.45;11.45;;;17.30;99.90;;;;;;5089818;28;20465;-71
2021/07/27 05:47:02;;;;;;;25.23;12.10;;;17.30;99.90;;;;;;5057628;28;20055;-71
2021/07/27 05:49:29;;;;;;;28.92;10.73;;;17.40;99.90;;;;;;5089510;28;20538;-71
2021/07/27 05:51:56;;;;;;;22.13;10.93;;;17.40;99.90;;;;;;5089477;28;20032;-71
2021/07/27 05:54:23;;;;;;;23.98;11.55;;;17.50;99.90;;;;;;5054529;28;20036;-71
2021/07/27 05:56:50;;;;;;;26.65;10.52;;;17.50;99.90;;;;;;5076933;28;20036;-71
2021/07/27 05:59:16;;;;;;;23.42;10.43;;;17.60;99.90;;;;;;5088630;28;20042;-72
2021/07/27 06:01:42;;;;;;;24.10;10.73;;;17.60;99.90;;;;;;5088792;28;20032;-72
2021/07/27 06:04:09;;;;;;;22.45;10.55;;;17.70;99.90;;;;;;5072708;28;20111;-71
2021/07/27 06:06:35;;;;;;;21.58;11.30;;;17.60;99.90;;;;;;5055340;28;20484;-71
2021/07/27 06:09:03;;;;;;;27.33;11.13;;;17.70;99.90;;;;;;5053812;28;20393;-71
2021/07/27 06:11:32;;;;;;;23.45;10.65;;;17.70;99.90;;;;;;5081952;28;20028;-71
2021/07/27 06:14:00;;;;;;;21.25;10.63;;;17.80;99.90;;;;;;5082826;28;20036;-71
2021/07/27 06:16:25;;;;;;;21.23;10.05;;;17.90;99.90;;;;;;5050967;28;20029;-71
2021/07/27 06:18:51;;;;;;;19.20;10.23;;;17.90;99.90;;;;;;5059956;28;20119;-71
2021/07/27 06:21:16;;;;;;;22.52;10.45;;;17.90;99.90;;;;;;5075398;28;20135;-71
2021/07/27 06:23:42;;;;;;;19.67;9.88;;;18.00;99.90;;;;;;5050083;28;20043;-71
2021/07/27 06:26:07;;;;;;;20.20;9.85;;;17.90;99.90;;;;;;5069768;28;20067;-72
2021/07/27 06:28:34;;;;;;;21.35;9.95;;;18.00;99.90;;;;;;5085285;28;20036;-72
2021/07/27 06:31:03;;;;;;;18.90;9.75;;;18.00;99.90;;;;;;5085108;28;20032;-72
2021/07/27 06:33:28;;;;;;;19.42;9.57;;;18.10;99.90;;;;;;5088349;28;20115;-71
2021/07/27 06:35:57;;;;;;;21.35;9.60;;;18.10;99.90;;;;;;5080692;28;20088;-72
2021/07/27 06:38:24;;;;;;;23.50;9.63;;;18.20;99.90;;;;;;5080711;28;20028;-72
2021/07/27 06:40:50;;;;;;;20.58;10.25;;;18.20;99.90;;;;;;5055797;28;20373;-72
2021/07/27 06:43:16;;;;;;;24.65;9.77;;;18.20;99.90;;;;;;5058401;28;20040;-72
2021/07/27 06:45:42;;;;;;;21.83;9.73;;;18.20;99.90;;;;;;5058903;28;20036;-71
2021/07/27 06:48:10;;;;;;;19.42;10.40;;;18.30;99.90;;;;;;5083128;28;20373;-72
2021/07/27 06:50:36;;;;;;;21.05;9.27;;;18.30;99.90;;;;;;5079663;28;20037;-72
2021/07/27 06:53:02;;;;;;;23.30;9.82;;;18.30;99.90;;;;;;5059555;28;20515;-71
2021/07/27 06:55:27;;;;;;;24.50;10.40;;;18.40;99.90;;;;;;5085744;28;20028;-72
2021/07/27 06:57:53;;;;;;;28.10;9.93;;;18.50;99.90;;;;;;5080716;28;20631;-72
2021/07/27 07:00:19;;;;;;;20.50;10.27;;;18.80;99.90;;;;;;5083820;28;20415;-71
2021/07/27 07:02:44;;;;;;;21.92;9.52;;;18.90;99.90;;;;;;5083400;28;20420;-71
2021/07/27 07:05:10;;;;;;;18.02;8.90;;;18.80;99.90;;;;;;5084908;28;20059;-72
2021/07/27 07:07:36;;;;;;;22.05;9.70;;;19.00;99.90;;;;;;5086132;28;20104;-72
2021/07/27 07:10:02;;;;;;;22.70;9.95;;;19.00;99.90;;;;;;5082342;28;20704;-72
2021/07/27 07:12:29;;;;;;;23.67;11.20;;;18.90;99.90;;;;;;5060483;28;20059;-72
2021/07/27 07:14:58;;;;;;;26.02;9.80;;;18.80;99.90;;;;;;5064637;28;20028;-72
2021/07/27 07:17:27;;;;;;;16.87;8.93;;;18.70;99.90;;;;;;5086706;28;20032;-71
2021/07/27 07:19:53;;;;;;;21.38;8.98;;;18.70;99.90;;;;;;5056012;28;20028;-71
2021/07/27 07:22:19;;;;;;;25.45;10.25;;;18.60;99.90;;;;;;5058715;28;20032;-72
2021/07/27 07:24:46;;;;;;;20.30;9.60;;;18.50;99.90;;;;;;5081348;28;20089;-71
2021/07/27 07:27:12;;;;;;;18.70;9.05;;;18.60;99.90;;;;;;5085630;28;20119;-71
2021/07/27 07:29:37;;;;;;;24.08;10.32;;;18.60;99.90;;;;;;5059261;28;20629;-72
2021/07/27 07:32:03;;;;;;;19.02;9.73;;;18.70;99.90;;;;;;5085833;28;20558;-71
2021/07/27 07:34:29;;;;;;;19.13;9.57;;;18.80;99.90;;;;;;5080276;28;20043;-72
2021/07/27 07:36:54;;;;;;;17.63;9.77;;;18.80;99.90;;;;;;5080638;28;20115;-71
2021/07/27 07:39:20;;;;;;;16.50;9.27;;;19.00;99.90;;;;;;5081244;28;20032;-71
2021/07/27 07:41:45;;;;;;;23.40;9.63;;;19.10;99.90;;;;;;5085452;28;20021;-71
2021/07/27 07:44:11;;;;;;;17.13;9.00;;;19.20;99.90;;;;;;5085713;28;20036;-72
2021/07/27 07:46:36;;;;;;;16.08;9.43;;;19.30;99.90;;;;;;5062012;28;20644;-72
2021/07/27 07:49:02;;;;;;;22.83;8.98;;;19.40;99.90;;;;;;5082530;28;20051;-72
2021/07/27 07:51:28;;;;;;;17.08;8.75;;;19.50;99.90;;;;;;5072753;28;20028;-71
2021/07/27 07:53:54;;;;;;;17.15;8.98;;;19.60;99.90;;;;;;5072517;28;20395;-71
2021/07/27 07:56:19;;;;;;;18.88;8.48;;;19.80;99.90;;;;;;5068852;28;20071;-71
2021/07/27 07:58:46;;;;;;;19.40;8.57;;;19.90;99.90;;;;;;5082353;28;20039;-72
2021/07/27 08:01:12;;;;;;;14.60;8.27;;;19.90;99.90;;;;;;5077110;28;20032;-71
2021/07/27 08:03:38;;;;;;;18.52;9.18;;;19.90;99.90;;;;;;5056957;28;20036;-72
2021/07/27 08:06:03;;;;;;;18.52;9.38;;;20.00;99.90;;;;;;5056865;28;20134;-71
2021/07/27 08:08:29;;;;;;;20.40;8.35;;;20.40;99.90;;;;;;5079377;28;20047;-71
2021/07/27 08:10:55;;;;;;;17.65;8.63;;;21.00;99.90;;;;;;5078350;28;20051;-69
2021/07/27 08:13:20;;;;;;;15.48;8.48;;;21.60;99.90;;;;;;5057434;28;20039;-69
2021/07/27 08:15:48;;;;;;;17.38;7.95;;;21.70;99.90;;;;;;5075763;28;20049;-69
2021/07/27 08:18:13;;;;;;;15.45;8.52;;;21.60;99.90;;;;;;5073522;28;20646;-69
2021/07/27 08:20:39;;;;;;;16.25;8.30;;;21.40;99.90;;;;;;5075046;28;20033;-69
2021/07/27 08:23:05;;;;;;;18.27;8.23;;;21.10;99.90;;;;;;5077137;28;20549;-68
2021/07/27 08:25:30;;;;;;;20.80;8.88;;;20.70;99.90;;;;;;5073852;28;20035;-69
2021/07/27 08:27:56;;;;;;;16.40;8.13;;;20.60;99.90;;;;;;5054445;28;20032;-71
2021/07/27 08:30:22;;;;;;;16.92;8.77;;;20.40;99.90;;;;;;5074971;28;20130;-71
2021/07/27 08:32:50;;;;;;;18.67;8.75;;;20.10;99.90;;;;;;5076665;28;20037;-71
2021/07/27 08:35:16;;;;;;;23.98;9.73;;;20.10;99.90;;;;;;5079026;28;20055;-71
2021/07/27 08:37:42;;;;;;;16.48;9.30;;;20.10;99.90;;;;;;5079524;28;20040;-71
2021/07/27 08:40:09;;;;;;;17.33;9.35;;;20.20;99.90;;;;;;5072330;28;20040;-72
2021/07/27 08:42:35;;;;;;;13.40;8.60;;;20.20;99.90;;;;;;5055686;28;20123;-72
2021/07/27 08:45:06;;;;;;;15.00;8.70;;;20.30;99.90;;;;;;5067948;28;20032;-71
2021/07/27 08:47:32;;;;;;;20.83;9.27;;;20.30;99.90;;;;;;5073728;28;20039;-71
2021/07/27 08:50:00;;;;;;;19.50;10.45;;;20.30;99.90;;;;;;5072964;28;20515;-71
2021/07/27 08:52:25;;;;;;;22.58;11.55;;;20.20;99.90;;;;;;5074009;28;20496;-71
2021/07/27 08:54:51;;;;;;;21.80;10.80;;;20.00;99.90;;;;;;5072427;28;20033;-71
2021/07/27 08:57:17;;;;;;;23.20;9.95;;;20.10;99.90;;;;;;5072896;28;20186;-71
2021/07/27 08:59:43;;;;;;;18.52;11.02;;;20.00;99.90;;;;;;5087815;28;20039;-72
2021/07/27 09:02:09;;;;;;;20.98;10.85;;;19.90;99.90;;;;;;5051413;28;20036;-72
2021/07/27 09:04:34;;;;;;;25.55;12.00;;;19.80;99.90;;;;;;5057716;28;20032;-71
2021/07/27 09:07:01;;;;;;;21.05;11.50;;;19.80;99.90;;;;;;5089311;28;20613;-71
2021/07/27 09:09:31;;;;;;;21.60;12.10;;;19.80;99.90;;;;;;5087000;28;20036;-71
2021/07/27 09:11:58;;;;;;;25.05;12.88;;;19.70;99.90;;;;;;5089421;28;20051;-71
2021/07/27 09:14:23;;;;;;;21.85;11.95;;;19.70;99.90;;;;;;5083429;28;20077;-71
2021/07/27 09:16:51;;;;;;;29.38;13.48;;;19.60;99.90;;;;;;5084139;28;20052;-71
2021/07/27 09:19:17;;;;;;;20.80;12.77;;;19.80;99.90;;;;;;5059772;28;20143;-72
2021/07/27 09:21:43;;;;;;;20.70;12.38;;;19.80;99.90;;;;;;5063186;28;20127;-72
2021/07/27 09:24:28;;;;;;;22.33;11.23;;;19.90;99.90;;;;;;5087232;28;20059;-71
2021/07/27 09:27:11;;;;;;;19.23;11.23;;;19.90;99.90;;;;;;5080295;28;20032;-71
2021/07/27 09:29:47;;;;;;;23.35;10.60;;;19.90;99.90;;;;;;5050236;28;20036;-71
2021/07/27 09:32:20;;;;;;;16.83;9.85;;;20.00;99.90;;;;;;5071017;28;20668;-71
2021/07/27 09:34:46;;;;;;;20.40;10.75;;;19.90;99.90;;;;;;5051931;28;20062;-71
2021/07/27 09:37:12;;;;;;;17.13;9.30;;;19.80;99.90;;;;;;5071504;28;20046;-71
2021/07/27 09:39:39;;;;;;;18.10;10.10;;;19.70;99.90;;;;;;5078422;28;20035;-72
2021/07/27 09:42:08;;;;;;;22.92;10.98;;;19.70;99.90;;;;;;5088443;28;20503;-72
2021/07/27 09:44:35;;;;;;;23.83;11.50;;;19.60;99.90;;;;;;5087027;28;20670;-72
2021/07/27 09:47:01;;;;;;;22.63;9.95;;;19.60;99.90;;;;;;5085400;28;20043;-71
2021/07/27 09:49:28;;;;;;;25.77;10.65;;;19.70;99.90;;;;;;5088159;28;20044;-71
2021/07/27 09:51:56;;;;;;;21.55;10.90;;;19.60;99.90;;;;;;5055864;28;20040;-71
2021/07/27 09:54:23;;;;;;;20.98;10.50;;;19.60;99.90;;;;;;5052621;28;20032;-71
2021/07/27 09:56:50;;;;;;;21.95;11.02;;;19.60;99.90;;;;;;5084998;28;20043;-71
2021/07/27 09:59:17;;;;;;;17.60;9.93;;;19.60;99.90;;;;;;5052687;28;20059;-71
2021/07/27 10:01:48;;;;;;;19.80;9.63;;;19.70;99.90;;;;;;5072033;28;20115;-71
2021/07/27 10:04:21;;;;;;;16.63;8.45;;;19.60;99.90;;;;;;5060792;28;20035;-71
2021/07/27 10:06:48;;;;;;;15.73;7.03;;;19.70;99.90;;;;;;5072822;28;20427;-72
2021/07/27 10:09:23;;;;;;;14.00;7.40;;;19.70;99.90;;;;;;5084667;28;20032;-71
2021/07/27 10:11:49;;;;;;;17.15;7.40;;;19.50;99.90;;;;;;5078611;28;20789;-72
2021/07/27 10:14:16;;;;;;;12.18;6.78;;;19.50;99.90;;;;;;5048189;28;20036;-71
2021/07/27 10:16:43;;;;;;;14.00;7.03;;;19.50;99.90;;;;;;5071158;28;20121;-72
2021/07/27 10:19:22;;;;;;;15.40;6.97;;;19.50;99.90;;;;;;5049306;28;20678;-71
2021/07/27 10:22:09;;;;;;;11.80;6.38;;;19.50;99.90;;;;;;5075600;28;20653;-72
2021/07/27 10:24:49;;;;;;;12.48;6.82;;;19.50;99.90;;;;;;5060531;28;20111;-71
2021/07/27 10:27:18;;;;;;;12.77;6.43;;;19.30;99.90;;;;;;5079468;28;20444;-71
2021/07/27 10:29:44;;;;;;;14.07;7.60;;;19.10;99.90;;;;;;5083509;28;20036;-71
2021/07/27 10:32:17;;;;;;;15.27;7.45;;;18.90;99.90;;;;;;5082360;28;20070;-70
2021/07/27 10:34:44;;;;;;;14.73;7.15;;;18.80;99.90;;;;;;5077702;28;20028;-72
2021/07/27 10:37:15;;;;;;;17.95;8.23;;;18.70;99.90;;;;;;5053483;28;20036;-71
2021/07/27 10:39:50;;;;;;;15.88;7.35;;;18.60;99.90;;;;;;5071707;28;20119;-71
2021/07/27 10:42:17;;;;;;;12.10;6.68;;;18.60;99.90;;;;;;5061443;28;20050;-71
2021/07/27 10:44:43;;;;;;;12.35;6.90;;;18.60;99.90;;;;;;5082841;28;20042;-71
2021/07/27 10:47:20;;;;;;;11.60;6.78;;;18.70;99.90;;;;;;5050799;28;20032;-71
2021/07/27 10:49:46;;;;;;;10.27;5.85;;;18.80;99.90;;;;;;5077655;28;20062;-71
2021/07/27 10:52:12;;;;;;;11.95;5.80;;;19.00;99.90;;;;;;5058917;28;20061;-71
2021/07/27 10:54:42;;;;;;;12.73;6.22;;;19.20;99.90;;;;;;5049394;28;20037;-72
2021/07/27 10:57:11;;;;;;;11.10;6.13;;;19.30;99.90;;;;;;5072086;28;20139;-72
2021/07/27 10:59:37;;;;;;;9.77;5.13;;;19.50;99.90;;;;;;5077385;28;20555;-72
2021/07/27 11:02:10;;;;;;;9.52;4.70;;;19.50;99.90;;;;;;5055633;28;20043;-71
2021/07/27 11:04:37;;;;;;;12.70;5.57;;;19.50;99.90;;;;;;5081593;28;20032;-72
2021/07/27 11:07:11;;;;;;;11.10;4.63;;;19.40;99.90;;;;;;5086320;28;20025;-71
2021/07/27 11:09:57;;;;;;;10.45;4.35;;;19.40;99.90;;;;;;5055158;28;20266;-71
2021/07/27 11:12:25;;;;;;;7.63;3.85;;;19.40;99.90;;;;;;5078804;28;20108;-72
2021/07/27 11:15:01;;;;;;;9.27;3.88;;;19.40;99.90;;;;;;5085757;28;20032;-71
2021/07/27 11:17:27;;;;;;;8.65;4.15;;;19.40;99.90;;;;;;5086515;28;20033;-71
2021/07/27 11:19:54;;;;;;;9.80;3.78;;;19.40;99.90;;;;;;5086471;28;20536;-71
2021/07/27 11:22:20;;;;;;;8.75;3.50;;;19.40;99.90;;;;;;5050621;28;20039;-71
2021/07/27 11:24:46;;;;;;;7.95;4.03;;;19.40;99.90;;;;;;5057556;28;20045;-71
2021/07/27 11:27:16;;;;;;;5.30;3.22;;;19.50;99.90;;;;;;5061610;28;20560;-71
2021/07/27 11:29:41;;;;;;;6.22;2.72;;;19.50;99.90;;;;;;5051812;28;20044;-71
2021/07/27 11:32:16;;;;;;;6.20;3.08;;;19.40;99.90;;;;;;5049265;28;20044;-72
2021/07/27 11:34:41;;;;;;;7.18;2.80;;;19.30;99.90;;;;;;5055988;28;20044;-72
2021/07/27 11:37:07;;;;;;;5.35;2.60;;;19.30;99.90;;;;;;5056578;28;20049;-72
2021/07/27 11:39:39;;;;;;;6.47;2.67;;;19.20;99.90;;;;;;5056411;28;20604;-72
2021/07/27 11:42:05;;;;;;;12.45;3.08;;;19.20;99.90;;;;;;5053865;28;20497;-72
2021/07/27 11:44:31;;;;;;;5.32;2.90;;;19.20;99.90;;;;;;5057577;28;20140;-72
2021/07/27 11:46:57;;;;;;;9.80;2.78;;;19.30;99.90;;;;;;5084283;28;20051;-72
2021/07/27 11:49:23;;;;;;;5.65;2.60;;;19.30;99.90;;;;;;5052815;28;20033;-72
2021/07/27 11:51:59;;;;;;;15.98;3.15;;;19.40;99.90;;;;;;5049957;28;20032;-72
2021/07/27 11:54:25;;;;;;;4.38;2.25;;;19.70;99.90;;;;;;5071941;28;20032;-71
2021/07/27 11:56:51;;;;;;;3.58;2.00;;;20.00;99.90;;;;;;5077978;28;20024;-71
2021/07/27 11:59:27;;;;;;;5.00;2.22;;;20.30;99.90;;;;;;5074322;28;20062;-71
2021/07/27 12:01:54;;;;;;;4.90;1.83;;;20.60;99.90;;;;;;5056129;28;20032;-71
2021/07/27 12:04:20;;;;;;;5.20;2.25;;;21.00;99.90;;;;;;5057515;28;20028;-70
2021/07/27 12:06:50;;;;;;;4.03;2.13;;;21.10;99.90;;;;;;5083320;28;20032;-71
2021/07/27 12:09:17;;;;;;;4.13;1.88;;;21.20;99.90;;;;;;5090762;28;20032;-71
2021/07/27 12:11:43;;;;;;;3.65;1.70;;;21.30;99.90;;;;;;5089780;28;20645;-70
2021/07/27 12:14:09;;;;;;;4.80;2.20;;;21.40;99.90;;;;;;5066506;28;20074;-70
2021/07/27 12:16:34;;;;;;;2.85;1.73;;;21.40;99.90;;;;;;5055555;28;20081;-71
2021/07/27 12:19:00;;;;;;;3.03;2.00;;;21.60;99.90;;;;;;5059404;28;20039;-71
2021/07/27 12:21:25;;;;;;;6.47;2.30;;;21.70;99.90;;;;;;5085007;28;20090;-71
2021/07/27 12:23:51;;;;;;;4.15;2.40;;;21.80;99.90;;;;;;5088783;28;20031;-71
2021/07/27 12:26:17;;;;;;;4.80;2.55;;;21.80;99.90;;;;;;5057283;28;20048;-72
2021/07/27 12:28:42;;;;;;;7.20;2.30;;;21.80;99.90;;;;;;5086902;28;20032;-71
2021/07/27 12:31:08;;;;;;;8.25;2.47;;;21.90;99.90;;;;;;5064772;28;20035;-71
2021/07/27 12:33:33;;;;;;;6.95;2.90;;;22.10;99.90;;;;;;5089637;28;20174;-71
2021/07/27 12:36:00;;;;;;;5.20;2.88;;;22.20;99.90;;;;;;5085709;28;20102;-71
2021/07/27 12:38:26;;;;;;;6.25;2.60;;;22.20;99.90;;;;;;5085369;28;20407;-71
2021/07/27 12:40:52;;;;;;;5.55;3.05;;;22.10;99.90;;;;;;5081704;28;20031;-71
2021/07/27 12:43:17;;;;;;;5.28;2.92;;;22.10;99.90;;;;;;5077025;28;20036;-71
2021/07/27 12:45:44;;;;;;;4.20;2.50;;;22.20;99.90;;;;;;5077912;28;20620;-71
2021/07/27 12:48:09;;;;;;;4.70;2.30;;;22.10;99.90;;;;;;5053301;28;20635;-71
2021/07/27 12:50:35;;;;;;;7.05;2.50;;;22.00;99.90;;;;;;5056369;28;20043;-71
2021/07/27 12:53:01;;;;;;;5.88;2.33;;;22.00;99.90;;;;;;5077882;28;20041;-71